Taholah, WA

12:23 PM PST on February 14, 2016 (GMT -0800)
Humptulips / Axford Prairie | | Change Station
CLOSE
Current Station
Personal Weather Station
Location: Humptulips, WA
Elevation: 165 ft
Nearby Weather Stations

Elev 165 ft 47.18 °N, 123.96 °W | Updated 35 seconds ago

Rain
Rain
51.9 °F
Feels Like 51.9 °F
N
1.0
Wind Variable Wind from East
Gusts 5.0 mph

Today
High -- | Low -- °F
--% Chance of Precip.
Yesterday
High -- | Low -- °F
Precip. -- in
Pressure 30.19 in
Visibility 0.8 miles
Clouds Overcast 300 ft
Dew Point 51 °F
Humidity 98%
Rainfall 0.45 in
Snow Depth Not available.
7:24 AM 5:38 PM
Waxing Crescent, 45% visible
SPECI KHQM 142011Z AUTO 23015KT 3/4SM -RA BR OVC003 11/11 A3019 RMK AO2 P0001 T01060106
Pressure 30.19 in
Visibility 0.8 miles
Clouds Overcast 300 ft
Dew Point 51 °F
Humidity 98%
Rainfall 0.45 in
Snow Depth Not available.
7:24 AM 5:38 PM
Waxing Crescent, 45% visible
SPECI KHQM 142011Z AUTO 23015KT 3/4SM -RA BR OVC003 11/11 A3019 RMK AO2 P0001 T01060106

10-Day Weather Forecast

Almanac

Astronomy

Feb. 14, 2016 Rise Set
Actual Time
Civil Twilight
Nautical Twilight
Astronomical Twilight
Moon
Length of Visible Light
Length of Day
Tomorrow will be .
, % of the Moon is Illuminated

Today's Extremes

State Highs State Lows

Community

WunderPhotos

Upload Photos

1,892,885 photos uploaded!

WunderBlog® & News

Nearby

Air Quality

  Air Quality AQ Index Pollutant
Not available.

Snow Depth

Station Depth Elevation

Earthquake Activity

City Distance Mag. Time & Date
Minimum magnitude displayed is 2.5.

Coastal Water Temperatures

Place Temperature

Stations

Nearby Weather Stations

Station Location Temp. Windchill Dew Point Humidity Wind Precip. Elev Updated Type
                   

Watches & Warnings

There are currently no watches in effect.